Portland, Indiana
Current Conditions -  °F | °C
As of 4:53 PM on Friday 31 Oct 2014 (Local Time) from KMIE Reporting Station
Overcast Overcast  
Wind Chill: 34°   Ceiling: 1700
Heat Index: 41°   Visibility: 10mi
Dew Point: 36°   Wind: 13mph
Humidity: 82%   Direction: 310°NW
Pressure: 29.94"   Gusts: NA
Location:  40.44°N, 84.98°W
Report Text: KMIE 312053Z 31011KT 10SM FEW012 BKN017 OVC050 05/02 A2994 RMK AO2 SLP139 60002 T00500022 53000
Loading
Personal Weather Stations






























Interactive Weather Map
Tropical Storm Tracking
New forecast layout! Learn more

10-Day Weather Forecast

Advertisements
Track Severe Weather on mobile